DAL7452 EDDH-LIMC
Flight info
| Callsign | DAL7452 |
|---|---|
| Flight time | 1h 44m |
| Altitude | 41000 |
| Route | AMLUH2G AMLUH M852 DENIX DCT ZUCKA DCT EXITI DCT BERAS/N0485F400 DCT OLPIX/N0486F410 DCT EKPEB DCT RENTA DCT ATPED DCT LUSIL/N0432F190 M984 EVRIP |
| Aircraft | A359/H-SDE2E3GHIJ3J4J5LM1ORWXY/LB1D1 |
Departure
| Time | 2026-05-05 18:23 |
|---|---|
| Airport | Hamburg Helmut Schmidt Airport (EDDH) |
Arrival
| Time | 2026-05-05 20:08 |
|---|---|
| Airport | Milan Malpensa International Airport (LIMC) |
| Time | Latitude | Longitude | Altitude | Speed | Heading |
|---|---|---|---|---|---|
| 2026-05-05 17:27 | 53.62650 | 9.99188 | 46 ft | 0 kts | 70° |
| 2026-05-05 17:44 | 53.62650 | 9.99187 | 51 ft | 0 kts | 70° |
| 2026-05-05 17:55 | 53.62649 | 9.99187 | 51 ft | 0 kts | 70° |
| 2026-05-05 18:02 | 53.62649 | 9.99186 | 49 ft | 0 kts | 70° |
| 2026-05-05 18:12 | 53.62648 | 9.99178 | 51 ft | 4 kts | 70° |
| 2026-05-05 18:13 | 53.62639 | 9.99141 | 45 ft | 4 kts | 75° |
| 2026-05-05 18:13 | 53.62639 | 9.99102 | 43 ft | 4 kts | 129° |
| 2026-05-05 18:13 | 53.62660 | 9.99078 | 45 ft | 4 kts | 155° |
| 2026-05-05 18:13 | 53.62666 | 9.99073 | 45 ft | 1 kts | 152° |
| 2026-05-05 18:19 | 53.62639 | 9.99098 | 43 ft | 12 kts | 151° |
| 2026-05-05 18:19 | 53.62591 | 9.99210 | 46 ft | 13 kts | 100° |
| 2026-05-05 18:19 | 53.62595 | 9.99351 | 46 ft | 10 kts | 82° |
| 2026-05-05 18:19 | 53.62621 | 9.99457 | 48 ft | 2 kts | 55° |
| 2026-05-05 18:20 | 53.62621 | 9.99458 | 48 ft | 0 kts | 57° |
| 2026-05-05 18:20 | 53.62621 | 9.99547 | 47 ft | 10 kts | 89° |
| 2026-05-05 18:20 | 53.62631 | 9.99668 | 52 ft | 10 kts | 78° |
| 2026-05-05 18:20 | 53.62635 | 9.99696 | 51 ft | 0 kts | 77° |
| 2026-05-05 18:22 | 53.62680 | 9.99843 | 50 ft | 21 kts | 32° |
| 2026-05-05 18:22 | 53.62763 | 9.99832 | 50 ft | 0 kts | 336° |
| 2026-05-05 18:22 | 53.62764 | 9.99830 | 50 ft | 4 kts | 333° |
| 2026-05-05 18:23 | 53.63045 | 9.99585 | 48 ft | 86 kts | 334° |
| 2026-05-05 18:23 | 53.63789 | 9.98946 | 44 ft | 154 kts | 333° |
| 2026-05-05 18:23 | 53.64836 | 9.97966 | 454 ft | 180 kts | 327° |
| 2026-05-05 18:23 | 53.65881 | 9.96879 | 1413 ft | 175 kts | 336° |
| 2026-05-05 18:24 | 53.67051 | 9.95948 | 1959 ft | 197 kts | 339° |
| 2026-05-05 18:24 | 53.68348 | 9.94995 | 2647 ft | 206 kts | 343° |
| 2026-05-05 18:24 | 53.69749 | 9.94638 | 3464 ft | 206 kts | 3° |
| 2026-05-05 18:24 | 53.71132 | 9.95221 | 4213 ft | 208 kts | 29° |
| 2026-05-05 18:25 | 53.72195 | 9.96877 | 4767 ft | 213 kts | 54° |
| 2026-05-05 18:25 | 53.72475 | 9.97589 | 4881 ft | 216 kts | 58° |
| 2026-05-05 18:25 | 53.73661 | 10.01362 | 4978 ft | 221 kts | 69° |
| 2026-05-05 18:25 | 53.73857 | 10.03912 | 5020 ft | 221 kts | 97° |
| 2026-05-05 18:26 | 53.73330 | 10.06431 | 5243 ft | 240 kts | 117° |
| 2026-05-05 18:26 | 53.72470 | 10.09024 | 5644 ft | 263 kts | 120° |
| 2026-05-05 18:26 | 53.71533 | 10.11742 | 6410 ft | 273 kts | 120° |
| 2026-05-05 18:26 | 53.70571 | 10.14557 | 7242 ft | 281 kts | 121° |
| 2026-05-05 18:27 | 53.69585 | 10.17439 | 8161 ft | 286 kts | 122° |
| 2026-05-05 18:27 | 53.68316 | 10.20021 | 9072 ft | 286 kts | 143° |
| 2026-05-05 18:27 | 53.66561 | 10.21546 | 9680 ft | 285 kts | 165° |
| 2026-05-05 18:27 | 53.64653 | 10.22456 | 9869 ft | 286 kts | 168° |
| 2026-05-05 18:28 | 53.60766 | 10.24137 | 9888 ft | 289 kts | 168° |
| 2026-05-05 18:28 | 53.58829 | 10.25000 | 9889 ft | 289 kts | 168° |
| 2026-05-05 18:28 | 53.56886 | 10.25877 | 9892 ft | 289 kts | 167° |
| 2026-05-05 18:29 | 53.54931 | 10.26763 | 10050 ft | 295 kts | 167° |
| 2026-05-05 18:29 | 53.52882 | 10.27691 | 10321 ft | 318 kts | 167° |
| 2026-05-05 18:29 | 53.50664 | 10.28698 | 10726 ft | 341 kts | 167° |
| 2026-05-05 18:29 | 53.48345 | 10.29756 | 11474 ft | 350 kts | 166° |
| 2026-05-05 18:30 | 53.45972 | 10.30839 | 12364 ft | 356 kts | 166° |
| 2026-05-05 18:30 | 53.44385 | 10.31563 | 12930 ft | 360 kts | 166° |
| 2026-05-05 18:30 | 53.41121 | 10.33055 | 14040 ft | 367 kts | 166° |
| 2026-05-05 18:30 | 53.39484 | 10.33800 | 14550 ft | 370 kts | 166° |
| 2026-05-05 18:31 | 53.36980 | 10.34927 | 15344 ft | 374 kts | 166° |
| 2026-05-05 18:31 | 53.34457 | 10.36056 | 16128 ft | 378 kts | 167° |
| 2026-05-05 18:31 | 53.31898 | 10.37199 | 16917 ft | 382 kts | 167° |
| 2026-05-05 18:31 | 53.29317 | 10.38352 | 17718 ft | 386 kts | 167° |
| 2026-05-05 18:32 | 53.26715 | 10.39512 | 18514 ft | 388 kts | 166° |
| 2026-05-05 18:32 | 53.24100 | 10.40682 | 19261 ft | 391 kts | 166° |
| 2026-05-05 18:32 | 53.21451 | 10.41865 | 20002 ft | 396 kts | 167° |
| 2026-05-05 18:32 | 53.18781 | 10.43058 | 20751 ft | 399 kts | 167° |
| 2026-05-05 18:33 | 53.16085 | 10.44259 | 21503 ft | 403 kts | 167° |
| 2026-05-05 18:33 | 53.13363 | 10.45470 | 22248 ft | 407 kts | 167° |
| 2026-05-05 18:33 | 53.10615 | 10.46637 | 22988 ft | 410 kts | 170° |
| 2026-05-05 18:33 | 53.07807 | 10.47587 | 23659 ft | 413 kts | 172° |
| 2026-05-05 18:34 | 53.04965 | 10.48414 | 24274 ft | 416 kts | 173° |
| 2026-05-05 18:34 | 53.02099 | 10.49212 | 24910 ft | 419 kts | 173° |
| 2026-05-05 18:34 | 52.99211 | 10.50027 | 25544 ft | 422 kts | 173° |
| 2026-05-05 18:34 | 52.96313 | 10.50871 | 26164 ft | 425 kts | 173° |
| 2026-05-05 18:35 | 52.93391 | 10.51746 | 26795 ft | 428 kts | 173° |
| 2026-05-05 18:35 | 52.90451 | 10.52645 | 27404 ft | 431 kts | 173° |
| 2026-05-05 18:35 | 52.87488 | 10.53559 | 28001 ft | 434 kts | 173° |
| 2026-05-05 18:35 | 52.84511 | 10.54481 | 28587 ft | 437 kts | 173° |
| 2026-05-05 18:36 | 52.81506 | 10.55410 | 29165 ft | 440 kts | 173° |
| 2026-05-05 18:36 | 52.78484 | 10.56343 | 29723 ft | 444 kts | 173° |
| 2026-05-05 18:36 | 52.75442 | 10.57280 | 30257 ft | 445 kts | 173° |
| 2026-05-05 18:36 | 52.72389 | 10.58219 | 30757 ft | 447 kts | 173° |
| 2026-05-05 18:37 | 52.69328 | 10.59159 | 31203 ft | 449 kts | 173° |
| 2026-05-05 18:37 | 52.66253 | 10.60100 | 31654 ft | 451 kts | 173° |
| 2026-05-05 18:37 | 52.63167 | 10.61043 | 32086 ft | 452 kts | 173° |
| 2026-05-05 18:37 | 52.60062 | 10.61990 | 32489 ft | 454 kts | 174° |
| 2026-05-05 18:38 | 52.56949 | 10.62938 | 32874 ft | 456 kts | 174° |
| 2026-05-05 18:38 | 52.53822 | 10.63889 | 33313 ft | 457 kts | 174° |
| 2026-05-05 18:38 | 52.50712 | 10.64835 | 33882 ft | 454 kts | 173° |
| 2026-05-05 18:38 | 52.47608 | 10.65780 | 34321 ft | 452 kts | 173° |
| 2026-05-05 18:39 | 52.44508 | 10.66720 | 34627 ft | 454 kts | 173° |
| 2026-05-05 18:39 | 52.41391 | 10.67661 | 34916 ft | 456 kts | 173° |
| 2026-05-05 18:39 | 52.38270 | 10.68603 | 35240 ft | 457 kts | 173° |
| 2026-05-05 18:39 | 52.35142 | 10.69546 | 35543 ft | 458 kts | 173° |
| 2026-05-05 18:40 | 52.32002 | 10.70491 | 35849 ft | 459 kts | 173° |
| 2026-05-05 18:40 | 52.28857 | 10.71436 | 36142 ft | 460 kts | 173° |
| 2026-05-05 18:40 | 52.25709 | 10.72381 | 36438 ft | 461 kts | 173° |
| 2026-05-05 18:40 | 52.22558 | 10.73327 | 36783 ft | 461 kts | 173° |
| 2026-05-05 18:41 | 52.19399 | 10.74273 | 37076 ft | 462 kts | 173° |
| 2026-05-05 18:41 | 52.16236 | 10.75219 | 37369 ft | 463 kts | 173° |
| 2026-05-05 18:41 | 52.13069 | 10.76165 | 37648 ft | 463 kts | 173° |
| 2026-05-05 18:41 | 52.09890 | 10.77113 | 37932 ft | 464 kts | 173° |
| 2026-05-05 18:42 | 52.06712 | 10.78059 | 38196 ft | 465 kts | 173° |
| 2026-05-05 18:42 | 52.03532 | 10.79004 | 38469 ft | 465 kts | 173° |
| 2026-05-05 18:42 | 52.00347 | 10.79950 | 38718 ft | 465 kts | 173° |
| 2026-05-05 18:42 | 51.97168 | 10.80894 | 38953 ft | 464 kts | 173° |
| 2026-05-05 18:43 | 51.93996 | 10.81833 | 39162 ft | 464 kts | 173° |
| 2026-05-05 18:43 | 51.90812 | 10.82774 | 39354 ft | 465 kts | 173° |
| 2026-05-05 18:43 | 51.87626 | 10.83714 | 39534 ft | 466 kts | 173° |
| 2026-05-05 18:43 | 51.84437 | 10.84654 | 39704 ft | 467 kts | 173° |
| 2026-05-05 18:44 | 51.81239 | 10.85595 | 39885 ft | 467 kts | 173° |
| 2026-05-05 18:44 | 51.78047 | 10.86532 | 40042 ft | 468 kts | 173° |
| 2026-05-05 18:44 | 51.74883 | 10.87461 | 40247 ft | 468 kts | 173° |
| 2026-05-05 18:44 | 51.71636 | 10.88413 | 40437 ft | 468 kts | 173° |
| 2026-05-05 18:45 | 51.68430 | 10.89351 | 40596 ft | 469 kts | 173° |
| 2026-05-05 18:45 | 51.65215 | 10.90280 | 40739 ft | 470 kts | 173° |
| 2026-05-05 18:45 | 51.58752 | 10.91934 | 40827 ft | 470 kts | 174° |
| 2026-05-05 18:46 | 51.52278 | 10.93505 | 40825 ft | 470 kts | 174° |
| 2026-05-05 18:46 | 51.45822 | 10.95093 | 40819 ft | 469 kts | 174° |
| 2026-05-05 18:47 | 51.39382 | 10.96699 | 40816 ft | 469 kts | 174° |
| 2026-05-05 18:47 | 51.35528 | 10.97663 | 40818 ft | 469 kts | 174° |
| 2026-05-05 18:48 | 51.29084 | 10.99271 | 40801 ft | 469 kts | 174° |
| 2026-05-05 18:48 | 51.22636 | 11.00875 | 40786 ft | 469 kts | 174° |
| 2026-05-05 18:49 | 51.16192 | 11.02472 | 40805 ft | 469 kts | 174° |
| 2026-05-05 18:49 | 51.09745 | 11.04065 | 40804 ft | 469 kts | 174° |
| 2026-05-05 18:50 | 51.03298 | 11.05653 | 40795 ft | 469 kts | 174° |
| 2026-05-05 18:50 | 50.96864 | 11.07235 | 40805 ft | 467 kts | 174° |
| 2026-05-05 18:51 | 50.90442 | 11.08809 | 40800 ft | 467 kts | 174° |
| 2026-05-05 18:51 | 50.84022 | 11.10377 | 40803 ft | 467 kts | 174° |
| 2026-05-05 18:52 | 50.77602 | 11.11941 | 40800 ft | 467 kts | 174° |
| 2026-05-05 18:52 | 50.71185 | 11.13500 | 40804 ft | 466 kts | 174° |
| 2026-05-05 18:53 | 50.64798 | 11.15047 | 40804 ft | 466 kts | 174° |
| 2026-05-05 18:53 | 50.58506 | 11.16569 | 40802 ft | 466 kts | 174° |
| 2026-05-05 18:54 | 50.52240 | 11.18079 | 40803 ft | 466 kts | 174° |
| 2026-05-05 18:54 | 50.46067 | 11.19563 | 40795 ft | 466 kts | 174° |
| 2026-05-05 18:55 | 50.39703 | 11.21089 | 40797 ft | 465 kts | 174° |
| 2026-05-05 18:55 | 50.33268 | 11.22627 | 40789 ft | 465 kts | 174° |
| 2026-05-05 18:56 | 50.26858 | 11.24154 | 40797 ft | 466 kts | 173° |
| 2026-05-05 18:56 | 50.20433 | 11.25682 | 40799 ft | 467 kts | 173° |
| 2026-05-05 18:57 | 50.14064 | 11.27193 | 40797 ft | 467 kts | 174° |
| 2026-05-05 18:57 | 50.07641 | 11.28712 | 40790 ft | 467 kts | 173° |
| 2026-05-05 18:58 | 50.01217 | 11.30227 | 40797 ft | 467 kts | 174° |
| 2026-05-05 18:58 | 49.94777 | 11.31741 | 40810 ft | 468 kts | 174° |
| 2026-05-05 18:59 | 49.88343 | 11.33251 | 40800 ft | 468 kts | 174° |
| 2026-05-05 18:59 | 49.81908 | 11.34756 | 40803 ft | 468 kts | 174° |
| 2026-05-05 19:00 | 49.75488 | 11.36254 | 40813 ft | 469 kts | 174° |
| 2026-05-05 19:00 | 49.69036 | 11.37756 | 40814 ft | 469 kts | 174° |
| 2026-05-05 19:01 | 49.62588 | 11.39253 | 40813 ft | 469 kts | 174° |
| 2026-05-05 19:01 | 49.56143 | 11.40745 | 40817 ft | 468 kts | 174° |
| 2026-05-05 19:02 | 49.49689 | 11.42006 | 40815 ft | 467 kts | 176° |
| 2026-05-05 19:02 | 49.43219 | 11.43028 | 40820 ft | 467 kts | 176° |
| 2026-05-05 19:03 | 49.36763 | 11.44067 | 40821 ft | 466 kts | 176° |
| 2026-05-05 19:03 | 49.30359 | 11.45141 | 40824 ft | 464 kts | 176° |
| 2026-05-05 19:04 | 49.23905 | 11.46238 | 40825 ft | 464 kts | 176° |
| 2026-05-05 19:04 | 49.17482 | 11.47330 | 40823 ft | 464 kts | 176° |
| 2026-05-05 19:05 | 49.11190 | 11.48394 | 40819 ft | 464 kts | 176° |
| 2026-05-05 19:05 | 49.04678 | 11.49491 | 40819 ft | 463 kts | 176° |
| 2026-05-05 19:06 | 48.98337 | 11.50556 | 40805 ft | 463 kts | 176° |
| 2026-05-05 19:06 | 48.91918 | 11.51632 | 40811 ft | 464 kts | 176° |
| 2026-05-05 19:07 | 48.86579 | 11.52524 | 40804 ft | 464 kts | 176° |
| 2026-05-05 19:07 | 48.79071 | 11.53777 | 40804 ft | 464 kts | 176° |
| 2026-05-05 19:08 | 48.72694 | 11.54838 | 40801 ft | 465 kts | 176° |
| 2026-05-05 19:08 | 48.66274 | 11.55903 | 40800 ft | 466 kts | 176° |
| 2026-05-05 19:09 | 48.59815 | 11.56972 | 40802 ft | 466 kts | 176° |
| 2026-05-05 19:09 | 48.53479 | 11.58018 | 40810 ft | 466 kts | 176° |
| 2026-05-05 19:10 | 48.47044 | 11.59077 | 40829 ft | 467 kts | 176° |
| 2026-05-05 19:10 | 48.41625 | 11.59967 | 40826 ft | 468 kts | 176° |
| 2026-05-05 19:11 | 48.34376 | 11.61154 | 40826 ft | 469 kts | 176° |
| 2026-05-05 19:11 | 48.27891 | 11.62214 | 40832 ft | 469 kts | 176° |
| 2026-05-05 19:12 | 48.21594 | 11.63241 | 40827 ft | 469 kts | 176° |
| 2026-05-05 19:12 | 48.16212 | 11.64117 | 40830 ft | 469 kts | 176° |
| 2026-05-05 19:13 | 48.09812 | 11.65155 | 40832 ft | 469 kts | 176° |
| 2026-05-05 19:13 | 48.03720 | 11.66141 | 40829 ft | 469 kts | 176° |
| 2026-05-05 19:14 | 47.97234 | 11.67189 | 40833 ft | 468 kts | 176° |
| 2026-05-05 19:14 | 47.90755 | 11.68232 | 40836 ft | 468 kts | 176° |
| 2026-05-05 19:15 | 47.84455 | 11.69244 | 40839 ft | 468 kts | 176° |
| 2026-05-05 19:15 | 47.77981 | 11.70282 | 40837 ft | 467 kts | 176° |
| 2026-05-05 19:16 | 47.71520 | 11.71315 | 40837 ft | 466 kts | 176° |
| 2026-05-05 19:16 | 47.65065 | 11.72343 | 40834 ft | 467 kts | 176° |
| 2026-05-05 19:17 | 47.58651 | 11.73361 | 40829 ft | 467 kts | 176° |
| 2026-05-05 19:17 | 47.52196 | 11.74385 | 40829 ft | 467 kts | 176° |
| 2026-05-05 19:18 | 47.45782 | 11.75402 | 40833 ft | 466 kts | 176° |
| 2026-05-05 19:18 | 47.39283 | 11.76423 | 40844 ft | 466 kts | 177° |
| 2026-05-05 19:19 | 47.32847 | 11.76186 | 40857 ft | 462 kts | 189° |
| 2026-05-05 19:19 | 47.26478 | 11.74842 | 40858 ft | 462 kts | 191° |
| 2026-05-05 19:20 | 47.20124 | 11.73329 | 40858 ft | 462 kts | 191° |
| 2026-05-05 19:20 | 47.13777 | 11.71819 | 40868 ft | 462 kts | 191° |
| 2026-05-05 19:21 | 47.07421 | 11.70336 | 40887 ft | 462 kts | 191° |
| 2026-05-05 19:21 | 47.01158 | 11.68351 | 40905 ft | 459 kts | 201° |
| 2026-05-05 19:22 | 46.95281 | 11.64784 | 40919 ft | 457 kts | 206° |
| 2026-05-05 19:22 | 46.89527 | 11.60926 | 40915 ft | 456 kts | 206° |
| 2026-05-05 19:23 | 46.83766 | 11.57025 | 40931 ft | 456 kts | 206° |
| 2026-05-05 19:23 | 46.81206 | 11.55304 | 40932 ft | 457 kts | 206° |
| 2026-05-05 19:24 | 46.75485 | 11.51484 | 40940 ft | 457 kts | 206° |
| 2026-05-05 19:24 | 46.69890 | 11.47201 | 40956 ft | 454 kts | 216° |
| 2026-05-05 19:25 | 46.65175 | 11.41123 | 40960 ft | 452 kts | 226° |
| 2026-05-05 19:25 | 46.60898 | 11.34396 | 40959 ft | 453 kts | 228° |
| 2026-05-05 19:26 | 46.56685 | 11.27596 | 40968 ft | 453 kts | 228° |
| 2026-05-05 19:26 | 46.52451 | 11.20824 | 40964 ft | 453 kts | 228° |
| 2026-05-05 19:27 | 46.48263 | 11.14185 | 40978 ft | 453 kts | 228° |
| 2026-05-05 19:27 | 46.43924 | 11.07343 | 40976 ft | 453 kts | 227° |
| 2026-05-05 19:28 | 46.39658 | 11.00635 | 41043 ft | 453 kts | 228° |
| 2026-05-05 19:28 | 46.35389 | 10.93933 | 41039 ft | 453 kts | 228° |
| 2026-05-05 19:29 | 46.31242 | 10.87085 | 41029 ft | 452 kts | 234° |
| 2026-05-05 19:29 | 46.29542 | 10.83275 | 40712 ft | 447 kts | 240° |
| 2026-05-05 19:29 | 46.28054 | 10.79325 | 39985 ft | 449 kts | 241° |
| 2026-05-05 19:30 | 46.26625 | 10.75299 | 39237 ft | 451 kts | 242° |
| 2026-05-05 19:30 | 46.25227 | 10.71244 | 38492 ft | 451 kts | 242° |
| 2026-05-05 19:30 | 46.23842 | 10.67196 | 37694 ft | 447 kts | 242° |
| 2026-05-05 19:30 | 46.22476 | 10.63213 | 36586 ft | 438 kts | 242° |
| 2026-05-05 19:31 | 46.21126 | 10.59307 | 35362 ft | 433 kts | 242° |
| 2026-05-05 19:31 | 46.19782 | 10.55450 | 34144 ft | 427 kts | 243° |
| 2026-05-05 19:31 | 46.18452 | 10.51651 | 32738 ft | 422 kts | 242° |
| 2026-05-05 19:31 | 46.17144 | 10.47926 | 31945 ft | 408 kts | 242° |
| 2026-05-05 19:32 | 46.15870 | 10.44302 | 31246 ft | 407 kts | 242° |
| 2026-05-05 19:32 | 46.14574 | 10.40618 | 30485 ft | 417 kts | 242° |
| 2026-05-05 19:32 | 46.13252 | 10.36866 | 29635 ft | 422 kts | 242° |
| 2026-05-05 19:32 | 46.11913 | 10.33082 | 28925 ft | 423 kts | 242° |
| 2026-05-05 19:33 | 46.10607 | 10.29392 | 28379 ft | 411 kts | 242° |
| 2026-05-05 19:33 | 46.09299 | 10.25704 | 27805 ft | 414 kts | 242° |
| 2026-05-05 19:33 | 46.07997 | 10.22037 | 27233 ft | 408 kts | 242° |
| 2026-05-05 19:33 | 46.06711 | 10.18418 | 26652 ft | 403 kts | 241° |
| 2026-05-05 19:34 | 46.05439 | 10.14842 | 26086 ft | 400 kts | 241° |
| 2026-05-05 19:34 | 46.04169 | 10.11279 | 25520 ft | 399 kts | 241° |
| 2026-05-05 19:34 | 46.02940 | 10.07709 | 24982 ft | 397 kts | 243° |
| 2026-05-05 19:35 | 46.00570 | 10.00584 | 23852 ft | 392 kts | 242° |
| 2026-05-05 19:35 | 45.99393 | 9.97064 | 23267 ft | 390 kts | 242° |
| 2026-05-05 19:35 | 45.98216 | 9.93568 | 22664 ft | 387 kts | 242° |
| 2026-05-05 19:35 | 45.97044 | 9.90092 | 22131 ft | 385 kts | 242° |
| 2026-05-05 19:36 | 45.95879 | 9.86645 | 21567 ft | 383 kts | 242° |
| 2026-05-05 19:36 | 45.94706 | 9.83179 | 21049 ft | 389 kts | 243° |
| 2026-05-05 19:36 | 45.93529 | 9.79703 | 20441 ft | 384 kts | 242° |
| 2026-05-05 19:36 | 45.92364 | 9.76271 | 19856 ft | 381 kts | 242° |
| 2026-05-05 19:37 | 45.91206 | 9.72862 | 19325 ft | 381 kts | 243° |
| 2026-05-05 19:37 | 45.90024 | 9.69390 | 19046 ft | 390 kts | 243° |
| 2026-05-05 19:37 | 45.88832 | 9.65872 | 18993 ft | 394 kts | 243° |
| 2026-05-05 19:37 | 45.87628 | 9.62342 | 18988 ft | 394 kts | 243° |
| 2026-05-05 19:38 | 45.86419 | 9.58808 | 18992 ft | 394 kts | 242° |
| 2026-05-05 19:38 | 45.85216 | 9.55288 | 18985 ft | 391 kts | 242° |
| 2026-05-05 19:38 | 45.84049 | 9.51869 | 18997 ft | 371 kts | 242° |
| 2026-05-05 19:38 | 45.82940 | 9.48640 | 18948 ft | 352 kts | 242° |
| 2026-05-05 19:39 | 45.81874 | 9.45542 | 18668 ft | 342 kts | 242° |
| 2026-05-05 19:39 | 45.80824 | 9.42498 | 18123 ft | 341 kts | 242° |
| 2026-05-05 19:39 | 45.79789 | 9.39461 | 17455 ft | 341 kts | 244° |
| 2026-05-05 19:39 | 45.79108 | 9.36209 | 16801 ft | 344 kts | 258° |
| 2026-05-05 19:40 | 45.78865 | 9.32823 | 16152 ft | 334 kts | 263° |
| 2026-05-05 19:40 | 45.78709 | 9.29585 | 15526 ft | 318 kts | 263° |
| 2026-05-05 19:40 | 45.78562 | 9.26494 | 14936 ft | 305 kts | 263° |
| 2026-05-05 19:40 | 45.78417 | 9.23514 | 14344 ft | 295 kts | 263° |
| 2026-05-05 19:41 | 45.78272 | 9.20678 | 13776 ft | 289 kts | 263° |
| 2026-05-05 19:41 | 45.78118 | 9.17822 | 13120 ft | 287 kts | 263° |
| 2026-05-05 19:41 | 45.77964 | 9.14977 | 12461 ft | 286 kts | 263° |
| 2026-05-05 19:41 | 45.77810 | 9.12146 | 11812 ft | 284 kts | 263° |
| 2026-05-05 19:42 | 45.77656 | 9.09297 | 11270 ft | 288 kts | 263° |
| 2026-05-05 19:42 | 45.77504 | 9.06475 | 11020 ft | 282 kts | 263° |
| 2026-05-05 19:42 | 45.77354 | 9.03671 | 10990 ft | 283 kts | 263° |
| 2026-05-05 19:42 | 45.77203 | 9.00865 | 10986 ft | 283 kts | 263° |
| 2026-05-05 19:43 | 45.77055 | 8.98256 | 10981 ft | 283 kts | 262° |
| 2026-05-05 19:43 | 45.76529 | 8.95592 | 10978 ft | 280 kts | 240° |
| 2026-05-05 19:43 | 45.75271 | 8.93504 | 10989 ft | 278 kts | 218° |
| 2026-05-05 19:43 | 45.73700 | 8.91898 | 10983 ft | 278 kts | 214° |
| 2026-05-05 19:44 | 45.72077 | 8.90373 | 11177 ft | 280 kts | 213° |
| 2026-05-05 19:44 | 45.70448 | 8.88859 | 11252 ft | 279 kts | 213° |
| 2026-05-05 19:44 | 45.68818 | 8.87347 | 11267 ft | 280 kts | 213° |
| 2026-05-05 19:44 | 45.67193 | 8.85842 | 11267 ft | 280 kts | 213° |
| 2026-05-05 19:45 | 45.65557 | 8.84329 | 11269 ft | 280 kts | 213° |
| 2026-05-05 19:45 | 45.63795 | 8.83175 | 11265 ft | 282 kts | 192° |
| 2026-05-05 19:45 | 45.61874 | 8.83375 | 11015 ft | 280 kts | 162° |
| 2026-05-05 19:45 | 45.60338 | 8.84891 | 10512 ft | 289 kts | 132° |
| 2026-05-05 19:46 | 45.59475 | 8.87482 | 10032 ft | 296 kts | 101° |
| 2026-05-05 19:46 | 45.59463 | 8.90413 | 9633 ft | 294 kts | 91° |
| 2026-05-05 19:46 | 45.58999 | 8.93138 | 9355 ft | 277 kts | 123° |
| 2026-05-05 19:46 | 45.57671 | 8.94975 | 9146 ft | 261 kts | 153° |
| 2026-05-05 19:47 | 45.56083 | 8.96173 | 8762 ft | 257 kts | 158° |
| 2026-05-05 19:47 | 45.54372 | 8.96801 | 8379 ft | 253 kts | 178° |
| 2026-05-05 19:47 | 45.52629 | 8.96725 | 8026 ft | 250 kts | 186° |
| 2026-05-05 19:47 | 45.50906 | 8.96454 | 7653 ft | 248 kts | 188° |
| 2026-05-05 19:48 | 45.49199 | 8.96129 | 7286 ft | 247 kts | 188° |
| 2026-05-05 19:48 | 45.47498 | 8.95783 | 6930 ft | 246 kts | 189° |
| 2026-05-05 19:48 | 45.45806 | 8.95428 | 6558 ft | 245 kts | 189° |
| 2026-05-05 19:48 | 45.44131 | 8.95070 | 6200 ft | 244 kts | 189° |
| 2026-05-05 19:49 | 45.42478 | 8.94713 | 6006 ft | 243 kts | 189° |
| 2026-05-05 19:49 | 45.41347 | 8.94469 | 5984 ft | 243 kts | 189° |
| 2026-05-05 19:49 | 45.39132 | 8.94053 | 5969 ft | 243 kts | 183° |
| 2026-05-05 19:49 | 45.37466 | 8.94260 | 5983 ft | 236 kts | 172° |
| 2026-05-05 19:50 | 45.35877 | 8.94684 | 5980 ft | 230 kts | 170° |
| 2026-05-05 19:50 | 45.34306 | 8.95124 | 5983 ft | 230 kts | 170° |
| 2026-05-05 19:50 | 45.32736 | 8.95561 | 5979 ft | 230 kts | 171° |
| 2026-05-05 19:50 | 45.31163 | 8.95993 | 5978 ft | 230 kts | 171° |
| 2026-05-05 19:51 | 45.29595 | 8.96418 | 5980 ft | 230 kts | 171° |
| 2026-05-05 19:51 | 45.28024 | 8.96846 | 5968 ft | 230 kts | 171° |
| 2026-05-05 19:51 | 45.26535 | 8.97254 | 5966 ft | 215 kts | 171° |
| 2026-05-05 19:51 | 45.25624 | 8.97504 | 5967 ft | 210 kts | 171° |
| 2026-05-05 19:52 | 45.24190 | 8.97895 | 5969 ft | 208 kts | 171° |
| 2026-05-05 19:52 | 45.22768 | 8.98280 | 5963 ft | 208 kts | 171° |
| 2026-05-05 19:52 | 45.21343 | 8.98664 | 5967 ft | 208 kts | 171° |
| 2026-05-05 19:52 | 45.19919 | 8.99051 | 5961 ft | 208 kts | 171° |
| 2026-05-05 19:53 | 45.18501 | 8.99438 | 5962 ft | 208 kts | 171° |
| 2026-05-05 19:53 | 45.17075 | 8.99826 | 5964 ft | 208 kts | 171° |
| 2026-05-05 19:53 | 45.15650 | 9.00211 | 5969 ft | 209 kts | 171° |
| 2026-05-05 19:53 | 45.14228 | 9.00593 | 5965 ft | 208 kts | 171° |
| 2026-05-05 19:54 | 45.12799 | 9.00977 | 5960 ft | 208 kts | 171° |
| 2026-05-05 19:54 | 45.11377 | 9.01361 | 5960 ft | 208 kts | 171° |
| 2026-05-05 19:54 | 45.09949 | 9.01698 | 5956 ft | 208 kts | 177° |
| 2026-05-05 19:54 | 45.08566 | 9.01227 | 5916 ft | 207 kts | 211° |
| 2026-05-05 19:55 | 45.07609 | 8.99768 | 5591 ft | 211 kts | 243° |
| 2026-05-05 19:55 | 45.07252 | 8.97734 | 5174 ft | 218 kts | 261° |
| 2026-05-05 19:55 | 45.07120 | 8.95566 | 4738 ft | 224 kts | 263° |
| 2026-05-05 19:55 | 45.07019 | 8.93384 | 4297 ft | 220 kts | 263° |
| 2026-05-05 19:56 | 45.06918 | 8.91272 | 4014 ft | 210 kts | 263° |
| 2026-05-05 19:56 | 45.06814 | 8.89208 | 3969 ft | 210 kts | 263° |
| 2026-05-05 19:56 | 45.06710 | 8.87144 | 3965 ft | 211 kts | 264° |
| 2026-05-05 19:56 | 45.06852 | 8.85076 | 3958 ft | 213 kts | 284° |
| 2026-05-05 19:57 | 45.07593 | 8.83266 | 3981 ft | 216 kts | 315° |
| 2026-05-05 19:57 | 45.08913 | 8.82308 | 3989 ft | 216 kts | 348° |
| 2026-05-05 19:57 | 45.10339 | 8.81625 | 3975 ft | 220 kts | 332° |
| 2026-05-05 19:57 | 45.11739 | 8.80576 | 3950 ft | 230 kts | 330° |
| 2026-05-05 19:58 | 45.13102 | 8.79509 | 3950 ft | 220 kts | 329° |
| 2026-05-05 19:58 | 45.14446 | 8.78528 | 3989 ft | 215 kts | 341° |
| 2026-05-05 19:58 | 45.15881 | 8.77926 | 3967 ft | 216 kts | 353° |
| 2026-05-05 19:58 | 45.17380 | 8.77803 | 3962 ft | 217 kts | 4° |
| 2026-05-05 19:59 | 45.18897 | 8.77838 | 3966 ft | 219 kts | 3° |
| 2026-05-05 19:59 | 45.20426 | 8.77854 | 3965 ft | 219 kts | 360° |
| 2026-05-05 19:59 | 45.21951 | 8.77851 | 3965 ft | 219 kts | 0° |
| 2026-05-05 19:59 | 45.23471 | 8.77869 | 3988 ft | 219 kts | 1° |
| 2026-05-05 20:00 | 45.25000 | 8.77909 | 3982 ft | 219 kts | 1° |
| 2026-05-05 20:00 | 45.26517 | 8.77963 | 3990 ft | 218 kts | 2° |
| 2026-05-05 20:00 | 45.27980 | 8.78022 | 3990 ft | 218 kts | 2° |
| 2026-05-05 20:00 | 45.29509 | 8.78087 | 4001 ft | 216 kts | 2° |
| 2026-05-05 20:01 | 45.30994 | 8.78153 | 3991 ft | 214 kts | 2° |
| 2026-05-05 20:01 | 45.32436 | 8.78218 | 4002 ft | 199 kts | 2° |
| 2026-05-05 20:01 | 45.33792 | 8.78279 | 3997 ft | 197 kts | 2° |
| 2026-05-05 20:01 | 45.35177 | 8.78341 | 3995 ft | 197 kts | 2° |
| 2026-05-05 20:02 | 45.36525 | 8.78402 | 3992 ft | 196 kts | 2° |
| 2026-05-05 20:02 | 45.37888 | 8.78465 | 3993 ft | 196 kts | 2° |
| 2026-05-05 20:02 | 45.39256 | 8.78527 | 3994 ft | 197 kts | 2° |
| 2026-05-05 20:02 | 45.40627 | 8.78591 | 3991 ft | 197 kts | 2° |
| 2026-05-05 20:03 | 45.41991 | 8.78636 | 3990 ft | 196 kts | 0° |
| 2026-05-05 20:03 | 45.43333 | 8.78576 | 3990 ft | 189 kts | 356° |
| 2026-05-05 20:03 | 45.44618 | 8.78387 | 3992 ft | 185 kts | 351° |
| 2026-05-05 20:03 | 45.45887 | 8.78043 | 3912 ft | 189 kts | 349° |
| 2026-05-05 20:04 | 45.47173 | 8.77703 | 3652 ft | 183 kts | 350° |
| 2026-05-05 20:04 | 45.48392 | 8.77375 | 3423 ft | 174 kts | 350° |
| 2026-05-05 20:04 | 45.49548 | 8.77059 | 3179 ft | 165 kts | 350° |
| 2026-05-05 20:04 | 45.50648 | 8.76758 | 2957 ft | 157 kts | 350° |
| 2026-05-05 20:05 | 45.51706 | 8.76467 | 2752 ft | 148 kts | 351° |
| 2026-05-05 20:05 | 45.52677 | 8.76200 | 2555 ft | 140 kts | 351° |
| 2026-05-05 20:05 | 45.53639 | 8.75936 | 2375 ft | 139 kts | 351° |
| 2026-05-05 20:05 | 45.54590 | 8.75675 | 2181 ft | 139 kts | 351° |
| 2026-05-05 20:06 | 45.55539 | 8.75413 | 1992 ft | 139 kts | 351° |
| 2026-05-05 20:06 | 45.56480 | 8.75154 | 1797 ft | 137 kts | 351° |
| 2026-05-05 20:06 | 45.57417 | 8.74896 | 1606 ft | 136 kts | 350° |
| 2026-05-05 20:06 | 45.58329 | 8.74644 | 1418 ft | 134 kts | 351° |
| 2026-05-05 20:07 | 45.59240 | 8.74392 | 1228 ft | 131 kts | 349° |
| 2026-05-05 20:07 | 45.60113 | 8.74151 | 1050 ft | 129 kts | 348° |
| 2026-05-05 20:07 | 45.61004 | 8.73905 | 874 ft | 128 kts | 348° |
| 2026-05-05 20:07 | 45.61850 | 8.73671 | 736 ft | 126 kts | 349° |
| 2026-05-05 20:08 | 45.62565 | 8.73472 | 734 ft | 55 kts | 348° |
| 2026-05-05 20:08 | 45.62902 | 8.73379 | 735 ft | 46 kts | 347° |
| 2026-05-05 20:08 | 45.63131 | 8.73270 | 738 ft | 18 kts | 328° |
| 2026-05-05 20:08 | 45.63213 | 8.73190 | 742 ft | 30 kts | 319° |
| 2026-05-05 20:09 | 45.63334 | 8.72940 | 745 ft | 23 kts | 304° |
| 2026-05-05 20:09 | 45.63356 | 8.72890 | 746 ft | 3 kts | 300° |
| 2026-05-05 20:09 | 45.63402 | 8.72781 | 751 ft | 11 kts | 299° |